Aérodrome :
LOGIN :

S'inscrire | Disclaimer

   EN    FR    IT 

 










Légende :    VFR   VFR Marginal   IFR   IFR Intensif   IFR Très Intensif
Visi : 
Plafond : 
>= 8 km
>= 3000ft
5 à 8 km
1000 à 3000 ft
1500m à 5 km
500 à 1000 ft
800 à 1500m
200 à 500 ft
< 800m
< 200 ft
Symboles :   Orages  Brouillard  Fortes neiges  Fortes précipitations  Vent > 20 kt
SIGMETs :   Divers  Orages  Givrage  Turbulence  Onde Orograph.  Cendres Volcan.







- Altitude de l'aérodrome : 776 ft
- Code IATA : RMS


ETAR - Ramstein Air Base

DERNIER METAR :
  • 172356Z 00000KT 9999 BKN060 15/15 A3015 RMK AO2A SLP205 60088 T01480148 10235 20143 52010 $

METARs EXPIRÉS :
  • 172316Z AUTO 00000KT 9999 CLR 15/15 A3015 RMK AO2 SLP205 $
  • 172306Z AUTO 00000KT 3000 BR CLR 15/15 A3015 RMK AO2 VIS 2200V9000 SLP205 $
  • 172256Z AUTO 00000KT 9999 CLR 15/15 A3015 RMK AO2 SLP205 T01500150 402980111 $
  • 172156Z AUTO 00000KT 9999 FEW100 16/16 A3014 RMK AO2 SLP201 T01630163 $

TAF AMD TAF ETAR
Valide du 17 à 18h jusqu'au 19 à 00h UTC


171828Z 1718/1824 35009KT 9999 FEW050 SCT070 QNH3001INS
TEMPO 1718/1720 8000 -TSRA FEW050 BKN070CB
BECMG 1722/1723 VRB06KT 9999 FEW050 SCT070 QNH3009INS
BECMG 1809/1810 VRB06KT 9999 FEW070 QNH3018INS TX31/1814Z TN13/1802Z
Pas de NOTAMs connus pour ce terrain.



MET'MAP, la Météo Aéronautique d'un coup d'oeil ! - Copyright ORBIFLY Décembre 2007 - Disclaimer

ORBIFLY MET'MAP TEAM :

Programmation & Développement : Alexandra Zaïnal
Conception & Développement : Baudouin d'Aumeries
Co-Programmation & Développement : Marc-Olivier Méhu
Soutien technique & logistique : Manuel Goepfert

Contact : metmap@orbifly.com




SOURCES & CREDITS :

   NOAA